createdAt,value
2018-01-16T00:00:07.113Z,3.10
2018-01-16T00:02:34.059Z,3.10
2018-01-16T00:05:00.719Z,3.10
2018-01-16T00:07:27.282Z,3.20
2018-01-16T00:09:53.884Z,3.30
2018-01-16T00:12:20.449Z,3.30
2018-01-16T00:14:47.201Z,3.30
2018-01-16T00:17:14.040Z,3.30
2018-01-16T00:19:41.246Z,3.30
2018-01-16T00:22:08.041Z,3.30
2018-01-16T00:24:34.731Z,3.30
2018-01-16T00:27:01.488Z,3.30
2018-01-16T00:29:28.544Z,3.30
2018-01-16T00:31:55.068Z,3.30
2018-01-16T00:34:21.633Z,3.30
2018-01-16T00:36:48.501Z,3.20
2018-01-16T00:39:15.920Z,3.20
2018-01-16T00:41:43.132Z,3.20
2018-01-16T00:44:10.598Z,3.10
2018-01-16T00:46:37.297Z,3.10
2018-01-16T00:49:04.510Z,3.10
2018-01-16T00:51:31.135Z,3.10
2018-01-16T00:53:57.749Z,3.00
2018-01-16T00:56:24.677Z,2.90
2018-01-16T00:58:51.308Z,2.90
2018-01-16T01:01:17.980Z,2.80
2018-01-16T01:03:45.328Z,2.70
2018-01-16T01:06:13.007Z,2.80
2018-01-16T01:08:39.673Z,2.80
2018-01-16T01:11:06.537Z,2.80
2018-01-16T01:13:33.361Z,2.90
2018-01-16T01:15:59.921Z,2.90
2018-01-16T01:18:26.520Z,2.90
2018-01-16T01:20:53.098Z,3.10
2018-01-16T01:23:19.718Z,3.20
2018-01-16T01:25:46.365Z,3.30
2018-01-16T01:28:13.496Z,3.40
2018-01-16T01:30:41.078Z,3.40
2018-01-16T01:33:08.030Z,3.40
2018-01-16T01:35:35.050Z,3.40
2018-01-16T01:38:01.620Z,3.40
2018-01-16T01:40:28.219Z,3.40
2018-01-16T01:42:54.788Z,3.50
2018-01-16T01:45:21.323Z,3.60
2018-01-16T01:47:47.974Z,3.60
2018-01-16T01:50:15.288Z,3.60
2018-01-16T01:52:42.363Z,3.70
2018-01-16T01:55:09.643Z,3.60
2018-01-16T01:57:36.653Z,3.70
2018-01-16T02:00:03.464Z,3.70
2018-01-16T02:02:30.131Z,3.70
2018-01-16T02:04:56.697Z,3.70
2018-01-16T02:07:23.241Z,3.70
2018-01-16T02:09:49.900Z,3.80
2018-01-16T02:12:16.612Z,3.80
2018-01-16T02:14:45.326Z,3.70
2018-01-16T02:17:13.402Z,3.80
2018-01-16T02:19:42.048Z,3.70
2018-01-16T02:22:08.769Z,3.70
2018-01-16T02:24:35.425Z,3.70
2018-01-16T02:27:02.098Z,3.70
2018-01-16T02:29:28.877Z,3.60
2018-01-16T02:31:55.438Z,3.50
2018-01-16T02:34:22.016Z,3.50
2018-01-16T02:36:48.696Z,3.50
2018-01-16T02:39:15.832Z,3.60
2018-01-16T02:41:43.403Z,3.50
2018-01-16T02:44:10.525Z,3.50
2018-01-16T02:46:37.639Z,3.50
2018-01-16T02:49:04.316Z,3.60
2018-01-16T02:51:30.920Z,3.60
2018-01-16T02:53:57.477Z,3.60
2018-01-16T02:56:24.068Z,3.50
2018-01-16T02:58:50.629Z,3.50
2018-01-16T03:01:17.348Z,3.40
2018-01-16T03:03:44.473Z,3.40
2018-01-16T03:06:12.984Z,3.40
2018-01-16T03:08:40.751Z,3.30
2018-01-16T03:11:07.578Z,3.40
2018-01-16T03:13:34.519Z,3.40
2018-01-16T03:16:01.129Z,3.40
2018-01-16T03:18:27.836Z,3.40
2018-01-16T03:20:54.457Z,3.40
2018-01-16T03:23:21.135Z,3.30
2018-01-16T03:25:48.080Z,3.30
2018-01-16T03:28:16.069Z,3.20
2018-01-16T03:30:45.100Z,3.20
2018-01-16T03:33:14.397Z,3.30
2018-01-16T03:35:41.552Z,3.30
2018-01-16T03:38:08.307Z,3.40
2018-01-16T03:40:35.668Z,3.40
2018-01-16T03:43:02.828Z,3.50
2018-01-16T03:45:29.449Z,3.50
2018-01-16T03:47:56.100Z,3.50
2018-01-16T03:50:22.649Z,3.60
2018-01-16T03:52:49.605Z,3.60
2018-01-16T03:55:17.018Z,3.70
2018-01-16T03:57:44.935Z,3.70
2018-01-16T04:00:14.896Z,3.70
2018-01-16T04:02:42.091Z,3.70
2018-01-16T04:05:09.301Z,3.70
2018-01-16T04:07:35.913Z,3.70
2018-01-16T04:10:03.368Z,3.60
2018-01-16T04:12:29.953Z,3.60
2018-01-16T04:14:56.521Z,3.60
2018-01-16T04:17:23.092Z,3.60
2018-01-16T04:19:49.843Z,3.60
2018-01-16T04:22:17.107Z,3.70
2018-01-16T04:24:45.403Z,3.70
2018-01-16T04:27:12.989Z,3.70
2018-01-16T04:29:40.951Z,3.80
2018-01-16T04:32:07.800Z,3.90
2018-01-16T04:34:34.446Z,3.90
2018-01-16T04:37:01.509Z,4.10
2018-01-16T04:39:28.568Z,4.30
2018-01-16T04:41:55.324Z,4.30
2018-01-16T04:44:21.884Z,4.50
2018-01-16T04:46:48.808Z,4.60
2018-01-16T04:49:16.598Z,4.80
2018-01-16T04:51:45.309Z,4.80
2018-01-16T04:54:14.174Z,4.90
2018-01-16T04:56:44.026Z,4.90
2018-01-16T04:59:12.322Z,5.00
2018-01-16T05:01:39.160Z,5.00
2018-01-16T05:04:05.817Z,5.00
2018-01-16T05:06:33.115Z,5.00
2018-01-16T05:09:00.109Z,5.00
2018-01-16T05:11:26.668Z,5.00
2018-01-16T05:13:53.341Z,5.00
2018-01-16T05:16:21.084Z,5.00
2018-01-16T05:18:48.086Z,5.00
2018-01-16T05:21:14.921Z,4.90
2018-01-16T05:23:41.674Z,4.90
2018-01-16T05:26:08.425Z,4.90
2018-01-16T05:28:35.061Z,4.90
2018-01-16T05:31:01.697Z,4.90
2018-01-16T05:33:28.273Z,4.90
2018-01-16T05:35:55.026Z,4.90
2018-01-16T05:38:21.985Z,4.90
2018-01-16T05:40:50.584Z,4.90
2018-01-16T05:43:18.837Z,5.00
2018-01-16T05:45:45.807Z,5.10
2018-01-16T05:48:12.849Z,5.10
2018-01-16T05:50:40.658Z,5.20
2018-01-16T05:53:07.306Z,5.20
2018-01-16T05:55:33.929Z,5.20
2018-01-16T05:58:00.497Z,5.20
2018-01-16T06:00:27.052Z,5.10
2018-01-16T06:02:54.000Z,5.10
2018-01-16T06:05:22.186Z,5.20
2018-01-16T06:07:49.863Z,5.20
2018-01-16T06:10:20.111Z,5.20
2018-01-16T06:12:48.724Z,5.20
2018-01-16T06:15:15.388Z,5.20
2018-01-16T06:17:42.368Z,5.20
2018-01-16T06:20:09.148Z,5.20
2018-01-16T06:22:35.813Z,5.30
2018-01-16T06:25:02.376Z,5.40
2018-01-16T06:27:28.999Z,5.40
2018-01-16T06:29:55.752Z,5.40
2018-01-16T06:32:22.432Z,5.50
2018-01-16T06:34:49.496Z,5.50
2018-01-16T06:37:16.153Z,5.50
2018-01-16T06:39:43.488Z,5.60
2018-01-16T06:42:10.436Z,5.60
2018-01-16T06:44:37.469Z,5.60
2018-01-16T06:47:04.140Z,5.60
2018-01-16T06:49:30.761Z,5.60
2018-01-16T06:51:57.288Z,5.60
2018-01-16T06:54:24.605Z,5.50
2018-01-16T06:56:52.488Z,5.60
2018-01-16T06:59:19.647Z,5.60
2018-01-16T07:01:46.488Z,5.60
2018-01-16T07:04:13.241Z,5.60
2018-01-16T07:06:39.781Z,5.60
2018-01-16T07:09:06.440Z,5.70
2018-01-16T07:11:33.125Z,5.80
2018-01-16T07:14:00.049Z,5.70
2018-01-16T07:16:27.214Z,5.70
2018-01-16T07:18:54.301Z,5.70
2018-01-16T07:21:21.711Z,5.70
2018-01-16T07:23:48.774Z,5.70
2018-01-16T07:26:15.543Z,5.70
2018-01-16T07:28:42.292Z,5.70
2018-01-16T07:31:08.901Z,5.70
2018-01-16T07:33:35.569Z,5.70
2018-01-16T07:36:02.113Z,5.70
2018-01-16T07:38:28.681Z,5.80
2018-01-16T07:40:55.538Z,5.80
2018-01-16T07:43:22.602Z,5.80
2018-01-16T07:45:49.561Z,5.80
2018-01-16T07:48:16.617Z,5.80
2018-01-16T07:50:43.441Z,5.80
2018-01-16T07:53:10.109Z,5.80
2018-01-16T07:55:36.741Z,5.70
2018-01-16T07:58:03.497Z,5.80
2018-01-16T08:00:30.145Z,5.80
2018-01-16T08:02:57.028Z,5.80
2018-01-16T08:05:24.368Z,5.90
2018-01-16T08:07:51.238Z,6.00
2018-01-16T08:10:18.919Z,6.30
2018-01-16T08:12:45.901Z,6.30
2018-01-16T08:15:12.708Z,6.30
2018-01-16T08:17:39.441Z,6.40
2018-01-16T08:20:06.025Z,6.60
2018-01-16T08:22:32.653Z,6.70
2018-01-16T08:24:59.216Z,6.80
2018-01-16T08:27:25.857Z,6.80
2018-01-16T08:29:53.047Z,6.90
2018-01-16T08:32:20.814Z,7.00
2018-01-16T08:34:47.492Z,7.00
2018-01-16T08:37:14.315Z,7.00
2018-01-16T08:39:41.066Z,7.00
2018-01-16T08:42:07.922Z,7.00
2018-01-16T08:44:34.572Z,7.00
2018-01-16T08:47:01.141Z,7.10
2018-01-16T08:49:27.697Z,7.20
2018-01-16T08:51:54.323Z,7.30
2018-01-16T08:54:21.447Z,7.50
2018-01-16T08:56:48.547Z,7.50
2018-01-16T08:59:15.552Z,7.60
2018-01-16T09:01:42.192Z,7.60
2018-01-16T09:04:09.140Z,7.70
2018-01-16T09:06:36.088Z,7.90
2018-01-16T09:09:02.777Z,7.90
2018-01-16T09:11:29.309Z,7.90
2018-01-16T09:13:55.937Z,7.90
2018-01-16T09:16:22.701Z,7.80
2018-01-16T09:18:50.223Z,7.80
2018-01-16T09:21:17.212Z,7.80
2018-01-16T09:23:45.263Z,7.90
2018-01-16T09:26:11.972Z,7.90
2018-01-16T09:28:38.565Z,7.90
2018-01-16T09:31:05.285Z,7.70
2018-01-16T09:33:31.825Z,7.50
2018-01-16T09:35:58.819Z,7.20
2018-01-16T09:38:25.457Z,7.10
2018-01-16T09:40:52.231Z,7.00
2018-01-16T09:43:18.925Z,7.10
2018-01-16T09:45:45.501Z,7.10
2018-01-16T09:48:12.069Z,7.10
2018-01-16T09:50:38.664Z,7.10
2018-01-16T09:53:05.245Z,7.10
2018-01-16T09:55:31.781Z,7.20
2018-01-16T09:57:58.345Z,7.20
2018-01-16T10:00:24.944Z,7.10
2018-01-16T10:02:51.597Z,7.00
2018-01-16T10:05:18.213Z,7.00
2018-01-16T10:07:44.825Z,7.10
2018-01-16T10:10:11.353Z,7.10
2018-01-16T10:12:37.949Z,7.20
2018-01-16T10:15:04.552Z,7.40
2018-01-16T10:17:31.140Z,7.50
2018-01-16T10:19:57.697Z,7.60
2018-01-16T10:22:24.288Z,7.70
2018-01-16T10:24:50.868Z,7.70
2018-01-16T10:27:17.467Z,7.90
2018-01-16T10:29:44.109Z,8.10
2018-01-16T10:32:11.081Z,8.10
2018-01-16T10:34:38.033Z,8.00
2018-01-16T10:37:05.053Z,8.00
2018-01-16T10:39:31.703Z,8.00
2018-01-16T10:41:58.454Z,8.00
2018-01-16T10:44:25.103Z,7.90
2018-01-16T10:46:51.657Z,7.80
2018-01-16T10:49:18.433Z,7.90
2018-01-16T10:51:45.509Z,7.90
2018-01-16T10:54:12.473Z,7.90
2018-01-16T10:56:39.112Z,7.90
2018-01-16T10:59:05.716Z,7.90
2018-01-16T11:01:32.255Z,7.90
2018-01-16T11:03:58.886Z,7.80
2018-01-16T11:06:25.533Z,7.90
2018-01-16T11:08:52.304Z,7.90
2018-01-16T11:11:18.934Z,8.00
2018-01-16T11:13:45.544Z,8.00
2018-01-16T11:16:12.085Z,8.10
2018-01-16T11:18:38.660Z,8.10
2018-01-16T11:21:05.253Z,8.00
2018-01-16T11:23:31.873Z,8.00
2018-01-16T11:25:58.441Z,8.00
2018-01-16T11:28:25.050Z,7.90
2018-01-16T11:30:51.849Z,7.80
2018-01-16T11:33:19.014Z,7.70
2018-01-16T11:35:45.763Z,7.50
2018-01-16T11:38:12.412Z,7.40
2018-01-16T11:40:39.038Z,7.10
2018-01-16T11:43:05.596Z,7.00
2018-01-16T11:45:32.151Z,6.90
2018-01-16T11:47:58.777Z,6.90
2018-01-16T11:50:25.432Z,6.90
2018-01-16T11:52:52.210Z,6.90
2018-01-16T11:55:18.791Z,6.90
2018-01-16T11:57:45.377Z,6.90
2018-01-16T12:00:11.949Z,7.00
2018-01-16T12:02:38.520Z,7.00
2018-01-16T12:05:05.141Z,7.10
2018-01-16T12:07:31.724Z,7.10
2018-01-16T12:09:58.308Z,7.10
2018-01-16T12:12:24.873Z,7.10
2018-01-16T12:14:51.450Z,7.10
2018-01-16T12:17:18.410Z,7.10
2018-01-16T12:19:45.038Z,7.00
2018-01-16T12:22:11.573Z,7.00
2018-01-16T12:24:38.156Z,6.90
2018-01-16T12:27:04.716Z,6.80
2018-01-16T12:29:31.633Z,6.50
2018-01-16T12:31:58.201Z,6.50
2018-01-16T12:34:24.848Z,6.40
2018-01-16T12:36:51.516Z,6.40
2018-01-16T12:39:19.176Z,6.40
2018-01-16T12:41:45.745Z,6.50
2018-01-16T12:44:12.654Z,6.60
2018-01-16T12:46:39.346Z,6.60
2018-01-16T12:49:06.296Z,6.50
2018-01-16T12:51:33.217Z,6.50
2018-01-16T12:53:59.784Z,6.50
2018-01-16T12:56:26.341Z,6.50
2018-01-16T12:58:52.952Z,6.50
2018-01-16T13:01:19.676Z,6.50
2018-01-16T13:03:46.265Z,6.50
2018-01-16T13:06:12.830Z,6.60
2018-01-16T13:08:39.456Z,6.60
2018-01-16T13:11:06.055Z,6.60
2018-01-16T13:13:32.981Z,6.60
2018-01-16T13:15:59.573Z,6.60
2018-01-16T13:18:26.157Z,6.70
2018-01-16T13:20:52.917Z,6.70
2018-01-16T13:23:19.745Z,6.70
2018-01-16T13:25:46.389Z,6.80
2018-01-16T13:28:12.936Z,6.80
2018-01-16T13:30:39.926Z,6.80
2018-01-16T13:33:06.617Z,6.90
2018-01-16T13:35:33.558Z,6.80
2018-01-16T13:38:00.589Z,6.80
2018-01-16T13:40:27.312Z,6.80
2018-01-16T13:42:53.997Z,6.80
2018-01-16T13:45:20.861Z,6.80
2018-01-16T13:47:47.857Z,6.80
2018-01-16T13:50:14.416Z,6.80
2018-01-16T13:52:41.089Z,6.70
2018-01-16T13:55:07.685Z,6.70
2018-01-16T13:57:34.621Z,6.70
2018-01-16T14:00:01.185Z,6.80
2018-01-16T14:02:28.121Z,6.80
2018-01-16T14:04:54.759Z,6.80
2018-01-16T14:07:21.617Z,6.80
2018-01-16T14:09:48.272Z,6.80
2018-01-16T14:12:14.820Z,6.70
2018-01-16T14:14:41.434Z,6.50
2018-01-16T14:17:08.423Z,6.30
2018-01-16T14:19:34.969Z,6.10
2018-01-16T14:22:01.661Z,5.90
2018-01-16T14:24:28.605Z,5.80
2018-01-16T14:26:55.192Z,5.70
2018-01-16T14:29:21.838Z,5.70
2018-01-16T14:31:49.056Z,5.70
2018-01-16T14:34:15.948Z,5.00
2018-01-16T14:36:42.542Z,4.10
2018-01-16T14:39:09.186Z,3.80
2018-01-16T14:41:35.834Z,3.70
2018-01-16T14:44:02.417Z,3.60
2018-01-16T14:46:29.012Z,3.60
2018-01-16T14:48:55.549Z,3.50
2018-01-16T14:51:22.328Z,3.50
2018-01-16T14:53:49.569Z,3.40
2018-01-16T14:56:16.141Z,3.30
2018-01-16T14:58:42.807Z,3.30
2018-01-16T15:01:09.409Z,3.40
2018-01-16T15:03:35.986Z,3.40
2018-01-16T15:06:02.609Z,3.40
2018-01-16T15:08:29.233Z,3.50
2018-01-16T15:10:56.141Z,3.50
2018-01-16T15:13:22.982Z,3.50
2018-01-16T15:15:49.665Z,3.60
2018-01-16T15:18:16.204Z,3.60
2018-01-16T15:20:42.777Z,3.60
2018-01-16T15:23:09.765Z,3.50
2018-01-16T15:25:36.321Z,3.50
2018-01-16T15:28:02.905Z,3.50
2018-01-16T15:30:29.513Z,3.50
2018-01-16T15:32:56.087Z,3.40
2018-01-16T15:35:23.028Z,3.40
2018-01-16T15:37:50.858Z,3.50
2018-01-16T15:40:17.433Z,3.40
2018-01-16T15:42:44.432Z,3.40
2018-01-16T15:45:11.073Z,3.40
2018-01-16T15:47:37.929Z,3.40
2018-01-16T15:50:04.593Z,3.50
2018-01-16T15:52:31.228Z,3.50
2018-01-16T15:54:57.760Z,3.50
2018-01-16T15:57:24.506Z,3.40
2018-01-16T15:59:51.685Z,3.40
2018-01-16T16:02:19.464Z,3.40
2018-01-16T16:04:46.316Z,3.40
2018-01-16T16:07:12.880Z,3.30
2018-01-16T16:09:39.616Z,3.30
2018-01-16T16:12:06.473Z,3.30
2018-01-16T16:14:33.056Z,3.30
2018-01-16T16:17:00.077Z,3.20
2018-01-16T16:19:26.697Z,3.20
2018-01-16T16:21:53.375Z,3.20
2018-01-16T16:24:20.026Z,3.20
2018-01-16T16:26:46.597Z,3.10
2018-01-16T16:29:13.279Z,3.10
2018-01-16T16:31:39.840Z,3.10
2018-01-16T16:34:06.726Z,3.10
2018-01-16T16:36:33.473Z,3.10
2018-01-16T16:39:00.098Z,3.20
2018-01-16T16:41:26.775Z,3.20
2018-01-16T16:43:53.425Z,3.20
2018-01-16T16:46:19.992Z,3.30
2018-01-16T16:48:47.029Z,3.30
2018-01-16T16:51:13.678Z,3.30
2018-01-16T16:53:40.225Z,3.30
2018-01-16T16:56:07.084Z,3.30
2018-01-16T16:58:33.730Z,3.40
2018-01-16T17:01:00.354Z,3.40
2018-01-16T17:03:26.920Z,3.30
2018-01-16T17:05:53.673Z,3.30
2018-01-16T17:08:21.044Z,3.30
2018-01-16T17:10:48.408Z,3.30
2018-01-16T17:13:15.133Z,3.30
2018-01-16T17:15:41.672Z,3.30
2018-01-16T17:18:08.362Z,3.30
2018-01-16T17:20:34.905Z,3.30
2018-01-16T17:23:01.469Z,3.30
2018-01-16T17:25:28.032Z,3.20
2018-01-16T17:27:54.613Z,3.20
2018-01-16T17:30:21.390Z,3.20
2018-01-16T17:32:48.357Z,3.20
2018-01-16T17:35:21.952Z,3.20
2018-01-16T17:37:49.543Z,3.20
2018-01-16T17:40:16.162Z,3.20
2018-01-16T17:42:42.831Z,3.20
2018-01-16T17:45:09.461Z,3.20
2018-01-16T17:47:36.016Z,3.20
2018-01-16T17:50:02.691Z,3.20
2018-01-16T17:52:29.304Z,3.20
2018-01-16T17:54:55.862Z,3.20
2018-01-16T17:57:22.478Z,3.30
2018-01-16T17:59:49.406Z,3.30
2018-01-16T18:02:16.031Z,3.30
2018-01-16T18:04:42.652Z,3.30
2018-01-16T18:07:09.247Z,3.30
2018-01-16T18:09:35.881Z,3.40
2018-01-16T18:12:02.531Z,3.40
2018-01-16T18:14:29.181Z,3.40
2018-01-16T18:16:55.729Z,3.30
2018-01-16T18:19:22.482Z,3.30
2018-01-16T18:21:49.441Z,3.30
2018-01-16T18:24:16.186Z,3.30
2018-01-16T18:26:42.836Z,3.40
2018-01-16T18:29:09.509Z,3.30
2018-01-16T18:31:36.060Z,3.30
2018-01-16T18:34:02.601Z,3.30
2018-01-16T18:36:29.248Z,3.30
2018-01-16T18:38:55.880Z,3.30
2018-01-16T18:41:22.460Z,3.20
2018-01-16T18:43:49.486Z,3.20
2018-01-16T18:46:16.041Z,3.20
2018-01-16T18:48:43.146Z,3.30
2018-01-16T18:51:09.742Z,3.30
2018-01-16T18:53:36.276Z,3.40
2018-01-16T18:56:02.857Z,3.40
2018-01-16T18:58:29.392Z,3.40
2018-01-16T19:00:55.989Z,3.40
2018-01-16T19:03:22.568Z,3.40
2018-01-16T19:05:49.132Z,3.40
2018-01-16T19:08:15.844Z,3.30
2018-01-16T19:10:42.422Z,3.30
2018-01-16T19:13:09.004Z,3.30
2018-01-16T19:15:36.499Z,3.30
2018-01-16T19:18:03.191Z,3.30
2018-01-16T19:20:29.760Z,3.30
2018-01-16T19:22:56.297Z,3.30
2018-01-16T19:25:22.932Z,3.30
2018-01-16T19:27:49.541Z,3.30
2018-01-16T19:30:16.112Z,3.30
2018-01-16T19:32:42.681Z,3.30
2018-01-16T19:35:09.217Z,3.20
2018-01-16T19:37:35.789Z,3.10
2018-01-16T19:40:02.878Z,3.00
2018-01-16T19:42:29.416Z,3.00
2018-01-16T19:44:56.377Z,2.90
2018-01-16T19:47:23.390Z,2.90
2018-01-16T19:49:50.021Z,2.90
2018-01-16T19:52:16.791Z,2.90
2018-01-16T19:54:43.338Z,2.80
2018-01-16T19:57:09.913Z,2.80
2018-01-16T19:59:36.641Z,2.70
2018-01-16T20:02:03.257Z,2.60
2018-01-16T20:04:29.821Z,2.50
2018-01-16T20:06:56.383Z,2.50
2018-01-16T20:09:23.340Z,2.50
2018-01-16T20:11:49.900Z,2.40
2018-01-16T20:14:16.873Z,2.20
2018-01-16T20:16:43.900Z,2.10
2018-01-16T20:19:10.549Z,2.10
2018-01-16T20:21:37.317Z,2.00
2018-01-16T20:24:03.920Z,1.80
2018-01-16T20:26:30.476Z,1.80
2018-01-16T20:28:57.122Z,1.80
2018-01-16T20:31:23.799Z,1.70
2018-01-16T20:33:51.367Z,1.70
2018-01-16T20:36:17.970Z,1.70
2018-01-16T20:38:44.667Z,1.70
2018-01-16T20:41:13.467Z,1.80
2018-01-16T20:43:40.500Z,1.70
2018-01-16T20:46:07.278Z,1.70
2018-01-16T20:48:33.826Z,1.70
2018-01-16T20:51:00.449Z,1.60
2018-01-16T20:53:27.128Z,1.70
2018-01-16T20:55:53.689Z,1.60
2018-01-16T20:58:20.325Z,1.70
2018-01-16T21:00:46.972Z,1.70
2018-01-16T21:03:13.553Z,1.80
2018-01-16T21:05:40.578Z,1.80
2018-01-16T21:08:07.330Z,1.80
2018-01-16T21:10:34.400Z,1.90
2018-01-16T21:13:01.038Z,1.80
2018-01-16T21:15:27.689Z,1.80
2018-01-16T21:17:54.337Z,1.80
2018-01-16T21:20:20.996Z,1.80
2018-01-16T21:22:47.587Z,1.80
2018-01-16T21:25:14.137Z,1.80
2018-01-16T21:27:40.694Z,1.80
2018-01-16T21:30:07.383Z,1.80
2018-01-16T21:32:34.131Z,1.80
2018-01-16T21:35:00.882Z,1.70
2018-01-16T21:37:27.456Z,1.70
2018-01-16T21:39:54.053Z,1.60
2018-01-16T21:42:20.653Z,1.60
2018-01-16T21:44:47.678Z,1.70
2018-01-16T21:47:14.328Z,1.70
2018-01-16T21:49:40.938Z,1.60
2018-01-16T21:52:07.802Z,1.60
2018-01-16T21:54:34.371Z,1.50
2018-01-16T21:57:01.005Z,1.50
2018-01-16T21:59:27.593Z,1.50
2018-01-16T22:01:54.197Z,1.50
2018-01-16T22:04:21.071Z,1.50
2018-01-16T22:06:48.141Z,1.50
2018-01-16T22:09:14.760Z,1.50
2018-01-16T22:11:41.325Z,1.50
2018-01-16T22:14:07.877Z,1.50
2018-01-16T22:16:34.713Z,1.40
2018-01-16T22:19:01.329Z,1.40
2018-01-16T22:21:28.229Z,1.40
2018-01-16T22:23:54.877Z,1.40
2018-01-16T22:26:21.957Z,1.30
2018-01-16T22:28:49.013Z,1.30
2018-01-16T22:31:16.071Z,1.40
2018-01-16T22:33:42.665Z,1.40
2018-01-16T22:36:09.574Z,1.40
2018-01-16T22:38:36.197Z,1.40
2018-01-16T22:41:02.752Z,1.50
2018-01-16T22:43:29.314Z,1.50
2018-01-16T22:45:56.275Z,1.50
2018-01-16T22:48:22.926Z,1.60
2018-01-16T22:50:49.982Z,1.60
2018-01-16T22:53:16.631Z,1.60
2018-01-16T22:55:43.201Z,1.60
2018-01-16T22:58:10.112Z,1.50
2018-01-16T23:00:36.757Z,1.40
2018-01-16T23:03:03.435Z,1.50
2018-01-16T23:05:29.985Z,1.40
2018-01-16T23:07:56.564Z,1.40
2018-01-16T23:10:23.791Z,1.40
2018-01-16T23:12:50.748Z,1.40
2018-01-16T23:15:17.693Z,1.50
2018-01-16T23:17:44.357Z,1.40
2018-01-16T23:20:11.193Z,1.30
2018-01-16T23:22:37.859Z,1.30
2018-01-16T23:25:04.432Z,1.40
2018-01-16T23:27:31.087Z,1.30
2018-01-16T23:29:58.032Z,1.30
2018-01-16T23:32:24.970Z,1.30
2018-01-16T23:34:51.701Z,1.30
2018-01-16T23:37:19.354Z,1.30
2018-01-16T23:39:46.033Z,1.20
2018-01-16T23:42:12.673Z,1.20
2018-01-16T23:44:39.451Z,1.20
2018-01-16T23:47:06.038Z,1.20
2018-01-16T23:49:32.941Z,1.30
2018-01-16T23:51:59.597Z,1.30
2018-01-16T23:54:26.253Z,1.30
2018-01-16T23:56:53.154Z,1.40
2018-01-16T23:59:20.585Z,1.40
